createdAt,value
2023-02-11T00:00:21.406Z,17.88
2023-02-11T00:02:48.198Z,19.05
2023-02-11T00:05:14.989Z,18.08
2023-02-11T00:07:41.852Z,20.85
2023-02-11T00:10:09.222Z,18.80
2023-02-11T00:12:36.546Z,19.42
2023-02-11T00:15:03.573Z,17.48
2023-02-11T00:17:30.103Z,20.43
2023-02-11T00:19:56.687Z,19.98
2023-02-11T00:22:23.662Z,20.33
2023-02-11T00:24:50.240Z,17.55
2023-02-11T00:27:16.891Z,17.63
2023-02-11T00:29:43.393Z,21.58
2023-02-11T00:32:10.396Z,18.08
2023-02-11T00:34:38.131Z,20.70
2023-02-11T00:37:05.222Z,18.77
2023-02-11T00:39:31.850Z,14.17
2023-02-11T00:41:59.258Z,14.85
2023-02-11T00:44:25.827Z,17.83
2023-02-11T00:46:52.370Z,15.07
2023-02-11T00:49:19.418Z,18.65
2023-02-11T00:51:48.047Z,21.23
2023-02-11T00:54:20.754Z,21.70
2023-02-11T00:56:53.786Z,21.73
2023-02-11T01:01:41.310Z,19.60
2023-02-11T01:04:07.795Z,22.42
2023-02-11T01:06:34.534Z,16.75
2023-02-11T01:09:01.018Z,18.92
2023-02-11T01:11:27.594Z,18.15
2023-02-11T01:13:54.141Z,16.02
2023-02-11T01:16:21.245Z,19.30
2023-02-11T01:18:48.486Z,15.87
2023-02-11T01:21:15.117Z,19.10
2023-02-11T01:23:41.888Z,18.27
2023-02-11T01:26:08.390Z,19.63
2023-02-11T01:28:35.013Z,19.70
2023-02-11T01:31:02.493Z,19.40
2023-02-11T01:33:29.504Z,19.30
2023-02-11T01:35:56.011Z,17.92
2023-02-11T01:38:26.002Z,20.27
2023-02-11T01:41:02.348Z,12.90
2023-02-11T01:43:34.382Z,19.30
2023-02-11T01:46:21.525Z,20.80
2023-02-11T01:48:57.800Z,20.50
2023-02-11T01:51:29.719Z,18.48
2023-02-11T01:54:15.966Z,19.48
2023-02-11T01:57:04.472Z,20.60
2023-02-11T01:59:38.245Z,13.68
2023-02-11T02:02:09.644Z,17.70
2023-02-11T02:04:47.117Z,17.63
2023-02-11T02:07:22.491Z,17.95
2023-02-11T02:09:56.422Z,16.55
2023-02-11T02:12:24.006Z,15.48
2023-02-11T02:14:50.540Z,17.20
2023-02-11T02:17:39.054Z,20.55
2023-02-11T02:20:29.024Z,13.80
2023-02-11T02:23:13.978Z,15.98
2023-02-11T02:26:02.106Z,19.75
2023-02-11T02:29:12.690Z,20.52
2023-02-11T02:32:10.738Z,17.50
2023-02-11T02:34:49.536Z,13.32
2023-02-11T02:37:24.111Z,20.38
2023-02-11T02:39:50.849Z,16.05
2023-02-11T02:42:18.555Z,18.15
2023-02-11T02:44:49.787Z,20.05
2023-02-11T02:47:16.669Z,21.20
2023-02-11T02:49:43.146Z,19.88
2023-02-11T02:52:31.485Z,15.95
2023-02-11T02:55:03.888Z,19.17
2023-02-11T02:57:51.452Z,21.27
2023-02-11T03:00:29.993Z,21.67
2023-02-11T03:02:59.495Z,17.92
2023-02-11T03:05:51.237Z,19.30
2023-02-11T03:08:29.236Z,21.50
2023-02-11T03:13:29.000Z,19.40
2023-02-11T03:15:57.764Z,17.77
2023-02-11T03:18:27.417Z,17.20
2023-02-11T03:20:55.466Z,20.13
2023-02-11T03:23:30.689Z,14.55
2023-02-11T03:26:10.181Z,15.70
2023-02-11T03:28:49.865Z,20.55
2023-02-11T03:31:34.239Z,19.60
2023-02-11T03:34:12.636Z,20.60
2023-02-11T03:36:48.069Z,18.73
2023-02-11T03:39:19.857Z,21.05
2023-02-11T03:41:48.977Z,16.85
2023-02-11T03:44:17.244Z,18.20
2023-02-11T03:46:52.258Z,16.08
2023-02-11T03:49:21.882Z,21.90
2023-02-11T03:51:51.777Z,21.65
2023-02-11T03:54:23.214Z,16.60
2023-02-11T03:56:55.255Z,24.65
2023-02-11T03:59:22.485Z,24.35
2023-02-11T04:01:49.474Z,25.33
2023-02-11T04:04:16.383Z,24.80
2023-02-11T04:06:43.519Z,25.48
2023-02-11T04:09:10.796Z,17.77
2023-02-11T04:11:37.421Z,23.58
2023-02-11T04:14:04.331Z,17.02
2023-02-11T04:16:31.162Z,21.58
2023-02-11T04:18:57.971Z,18.90
2023-02-11T04:21:24.526Z,20.80
2023-02-11T04:23:51.004Z,18.27
2023-02-11T04:26:17.551Z,17.83
2023-02-11T04:28:44.303Z,20.98
2023-02-11T04:31:13.502Z,14.85
2023-02-11T04:33:40.067Z,18.35
2023-02-11T04:36:07.302Z,20.25
2023-02-11T04:38:33.776Z,21.85
2023-02-11T04:41:00.661Z,23.92
2023-02-11T04:43:29.515Z,22.83
2023-02-11T04:46:01.486Z,13.32
2023-02-11T04:48:28.076Z,19.98
2023-02-11T04:50:54.568Z,23.00
2023-02-11T04:53:21.316Z,22.25
2023-02-11T04:55:52.086Z,21.98
2023-02-11T04:58:19.574Z,21.25
2023-02-11T05:00:47.049Z,15.85
2023-02-11T05:03:14.031Z,22.48
2023-02-11T05:05:41.952Z,14.80
2023-02-11T05:08:10.957Z,21.90
2023-02-11T05:10:37.817Z,21.10
2023-02-11T05:13:04.983Z,20.92
2023-02-11T05:15:31.478Z,18.93
2023-02-11T05:17:59.759Z,20.35
2023-02-11T05:20:28.744Z,19.95
2023-02-11T05:22:55.256Z,21.65
2023-02-11T05:25:21.774Z,16.88
2023-02-11T05:27:48.395Z,17.83
2023-02-11T05:30:14.906Z,20.77
2023-02-11T05:32:41.800Z,20.27
2023-02-11T05:35:09.519Z,20.48
2023-02-11T05:37:36.547Z,20.30
2023-02-11T05:40:03.596Z,20.73
2023-02-11T05:42:31.815Z,20.80
2023-02-11T05:44:58.397Z,19.88
2023-02-11T05:47:24.926Z,19.88
2023-02-11T05:49:51.803Z,22.25
2023-02-11T05:52:18.356Z,20.08
2023-02-11T05:54:45.907Z,18.52
2023-02-11T05:57:12.897Z,21.77
2023-02-11T05:59:39.732Z,21.80
2023-02-11T06:02:07.995Z,16.75
2023-02-11T06:04:35.354Z,10.40
2023-02-11T06:07:01.994Z,17.63
2023-02-11T06:09:28.473Z,23.60
2023-02-11T06:11:54.958Z,20.75
2023-02-11T06:14:21.854Z,22.95
2023-02-11T06:16:48.330Z,18.20
2023-02-11T06:19:14.944Z,17.40
2023-02-11T06:21:44.090Z,26.13
2023-02-11T06:24:11.351Z,20.92
2023-02-11T06:26:38.039Z,24.85
2023-02-11T06:29:04.705Z,25.08
2023-02-11T06:31:31.269Z,23.58
2023-02-11T06:33:59.356Z,21.02
2023-02-11T06:36:26.240Z,23.52
2023-02-11T06:38:53.074Z,23.08
2023-02-11T06:41:20.512Z,25.02
2023-02-11T06:43:47.583Z,25.95
2023-02-11T06:46:14.495Z,29.27
2023-02-11T06:48:44.488Z,27.63
2023-02-11T06:51:13.425Z,22.67
2023-02-11T06:53:43.350Z,26.20
2023-02-11T06:56:18.876Z,23.88
2023-02-11T06:58:45.805Z,37.90
2023-02-11T07:01:16.629Z,27.05
2023-02-11T07:03:44.931Z,26.30
2023-02-11T07:06:16.220Z,29.10
2023-02-11T07:08:43.466Z,23.90
2023-02-11T07:11:24.307Z,29.83
2023-02-11T07:13:52.048Z,27.48
2023-02-11T07:16:19.624Z,22.38
2023-02-11T07:18:47.424Z,18.65
2023-02-11T07:21:16.511Z,23.58
2023-02-11T07:23:43.503Z,31.38
2023-02-11T07:26:12.546Z,24.47
2023-02-11T07:28:40.549Z,30.27
2023-02-11T07:33:40.439Z,20.83
2023-02-11T07:36:08.455Z,21.05
2023-02-11T07:41:03.576Z,26.75
2023-02-11T07:43:31.514Z,28.52
2023-02-11T07:48:25.156Z,31.58
2023-02-11T07:50:51.738Z,24.17
2023-02-11T07:53:18.306Z,28.88
2023-02-11T07:55:44.939Z,28.65
2023-02-11T07:58:11.419Z,26.35
2023-02-11T08:00:38.008Z,32.58
2023-02-11T08:03:05.019Z,29.60
2023-02-11T08:05:31.548Z,22.98
2023-02-11T08:07:58.151Z,30.15
2023-02-11T08:10:24.622Z,28.98
2023-02-11T08:12:51.124Z,30.40
2023-02-11T08:15:17.790Z,30.20
2023-02-11T08:17:44.288Z,27.75
2023-02-11T08:20:10.990Z,29.65
2023-02-11T08:22:37.464Z,26.42
2023-02-11T08:25:04.434Z,34.78
2023-02-11T08:27:30.911Z,26.48
2023-02-11T08:29:59.479Z,33.50
2023-02-11T08:32:26.831Z,21.10
2023-02-11T08:34:53.692Z,31.60
2023-02-11T08:37:20.780Z,30.73
2023-02-11T08:39:47.543Z,28.70
2023-02-11T08:42:15.558Z,30.60
2023-02-11T08:47:08.838Z,33.15
2023-02-11T08:49:35.485Z,35.92
2023-02-11T08:52:04.502Z,36.75
2023-02-11T08:54:31.638Z,34.90
2023-02-11T08:56:58.265Z,29.57
2023-02-11T08:59:24.979Z,32.22
2023-02-11T09:01:52.957Z,26.20
2023-02-11T09:06:46.321Z,36.97
2023-02-11T09:09:14.793Z,34.28
2023-02-11T09:11:43.174Z,31.27
2023-02-11T09:14:16.739Z,30.30
2023-02-11T09:16:43.586Z,35.95
2023-02-11T09:19:10.810Z,32.53
2023-02-11T09:21:37.747Z,33.53
2023-02-11T09:24:06.581Z,31.23
2023-02-11T09:26:34.939Z,36.90
2023-02-11T09:29:03.445Z,36.22
2023-02-11T09:31:32.820Z,33.22
2023-02-11T09:34:02.652Z,28.67
2023-02-11T09:36:35.205Z,34.40
2023-02-11T09:39:03.919Z,31.50
2023-02-11T09:42:07.613Z,33.67
2023-02-11T09:44:36.244Z,30.67
2023-02-11T09:47:30.998Z,34.00
2023-02-11T09:50:03.380Z,34.03
2023-02-11T09:52:50.195Z,28.02
2023-02-11T09:55:28.020Z,33.33
2023-02-11T10:00:38.079Z,30.95
2023-02-11T10:03:21.625Z,32.83
2023-02-11T10:06:11.886Z,31.15
2023-02-11T10:26:35.549Z,31.40
2023-02-11T10:29:12.290Z,31.17
2023-02-11T10:31:43.512Z,23.80
2023-02-11T10:34:12.050Z,32.05
2023-02-11T10:36:41.341Z,30.48
2023-02-11T10:39:16.749Z,31.65
2023-02-11T10:41:51.123Z,30.10
2023-02-11T10:44:27.921Z,31.55
2023-02-11T10:46:56.338Z,28.27
2023-02-11T10:49:44.290Z,32.30
2023-02-11T10:52:28.303Z,27.15
2023-02-11T10:55:06.205Z,27.20
2023-02-11T11:00:26.544Z,28.10
2023-02-11T11:02:59.468Z,25.10
2023-02-11T11:05:35.415Z,27.10
2023-02-11T11:08:07.896Z,21.40
2023-02-11T11:10:37.761Z,18.77
2023-02-11T11:13:04.517Z,29.70
2023-02-11T11:15:32.202Z,23.17
2023-02-11T11:18:21.421Z,29.67
2023-02-11T11:21:00.638Z,29.42
2023-02-11T11:23:31.240Z,29.65
2023-02-11T11:26:03.763Z,28.67
2023-02-11T11:28:33.926Z,28.63
2023-02-11T11:31:00.895Z,28.08
2023-02-11T11:33:34.584Z,27.73
2023-02-11T11:36:08.907Z,28.80
2023-02-11T11:38:42.854Z,20.83
2023-02-11T11:41:24.885Z,14.93
2023-02-11T11:43:59.200Z,23.65
2023-02-11T11:46:35.368Z,27.27
2023-02-11T11:49:31.627Z,26.10
2023-02-11T11:52:14.061Z,22.00
2023-02-11T11:54:43.478Z,18.10
2023-02-11T11:57:18.171Z,28.30
2023-02-11T11:59:45.012Z,26.83
2023-02-11T12:02:17.310Z,19.33
2023-02-11T12:05:07.800Z,22.33
2023-02-11T12:08:01.009Z,24.23
2023-02-11T12:10:52.454Z,24.75
2023-02-11T12:13:31.195Z,25.95
2023-02-11T12:16:10.139Z,13.75
2023-02-11T12:18:57.524Z,18.08
2023-02-11T12:21:54.528Z,21.35
2023-02-11T12:24:39.106Z,15.77
2023-02-11T12:27:15.917Z,25.42
2023-02-11T12:30:09.363Z,25.13
2023-02-11T12:33:06.919Z,31.17
2023-02-11T12:38:35.621Z,23.88
2023-02-11T12:41:10.350Z,27.27
2023-02-11T12:43:42.408Z,26.45
2023-02-11T12:46:21.058Z,30.27
2023-02-11T12:49:06.395Z,34.58
2023-02-11T12:51:57.809Z,27.88
2023-02-11T12:54:53.948Z,31.75
2023-02-11T12:57:26.720Z,24.65
2023-02-11T13:00:18.901Z,32.53
2023-02-11T13:02:57.549Z,28.30
2023-02-11T13:05:33.692Z,27.70
2023-02-11T13:08:08.992Z,23.80
2023-02-11T13:10:38.306Z,31.58
2023-02-11T13:13:42.369Z,30.90
2023-02-11T13:16:33.162Z,30.83
2023-02-11T13:19:29.433Z,30.90
2023-02-11T13:22:02.590Z,27.92
2023-02-11T13:24:29.044Z,34.70
2023-02-11T13:27:10.644Z,22.33
2023-02-11T13:30:05.247Z,30.88
2023-02-11T13:32:53.586Z,34.20
2023-02-11T13:35:33.690Z,27.52
2023-02-11T13:38:05.586Z,35.67
2023-02-11T13:40:36.527Z,32.42
2023-02-11T13:43:06.314Z,21.77
2023-02-11T13:46:03.249Z,34.80
2023-02-11T13:48:36.451Z,28.25
2023-02-11T13:51:04.628Z,31.65
2023-02-11T13:53:47.016Z,27.52
2023-02-11T13:56:28.126Z,34.03
2023-02-11T13:58:54.786Z,30.83
2023-02-11T14:02:20.147Z,24.33
2023-02-11T14:05:24.086Z,30.55
2023-02-11T14:08:28.230Z,35.65
2023-02-11T14:11:03.473Z,32.78
2023-02-11T14:13:32.611Z,32.65
2023-02-11T14:16:11.269Z,33.83
2023-02-11T14:18:52.680Z,33.53
2023-02-11T14:21:30.367Z,24.85
2023-02-11T14:24:04.914Z,28.98
2023-02-11T14:26:50.115Z,24.73
2023-02-11T14:29:51.252Z,33.47
2023-02-11T14:32:39.087Z,31.55
2023-02-11T14:35:29.100Z,28.30
2023-02-11T14:38:35.272Z,23.00
2023-02-11T14:41:11.017Z,26.17
2023-02-11T14:43:45.321Z,25.45
2023-02-11T14:46:12.546Z,33.15
2023-02-11T14:48:44.466Z,34.10
2023-02-11T14:51:31.784Z,33.28
2023-02-11T14:54:18.841Z,31.08
2023-02-11T14:56:46.862Z,32.65
2023-02-11T14:59:22.960Z,39.28
2023-02-11T15:01:51.507Z,36.78
2023-02-11T15:04:34.509Z,33.72
2023-02-11T15:07:07.606Z,31.88
2023-02-11T15:09:48.482Z,36.33
2023-02-11T15:12:25.060Z,35.92
2023-02-11T15:14:55.381Z,36.47
2023-02-11T15:17:27.464Z,30.65
2023-02-11T15:19:56.830Z,31.23
2023-02-11T15:22:27.206Z,33.88
2023-02-11T15:25:20.251Z,26.40
2023-02-11T15:27:52.729Z,34.40
2023-02-11T15:30:22.126Z,38.25
2023-02-11T15:32:59.266Z,35.53
2023-02-11T15:35:35.051Z,37.15
2023-02-11T15:38:01.666Z,39.92
2023-02-11T15:40:33.806Z,40.33
2023-02-11T15:43:06.143Z,37.85
2023-02-11T15:45:36.901Z,36.13
2023-02-11T15:48:43.618Z,38.05
2023-02-11T15:51:35.546Z,38.42
2023-02-11T15:54:05.847Z,37.03
2023-02-11T15:56:42.176Z,30.63
2023-02-11T15:59:23.921Z,35.25
2023-02-11T16:01:50.841Z,33.20
2023-02-11T16:04:20.290Z,34.60
2023-02-11T16:06:51.190Z,38.05
2023-02-11T16:09:33.065Z,35.28
2023-02-11T16:12:07.581Z,39.20
2023-02-11T16:14:42.252Z,33.80
2023-02-11T16:17:27.899Z,37.08
2023-02-11T16:19:55.079Z,32.38
2023-02-11T16:22:28.111Z,35.83
2023-02-11T16:24:58.147Z,35.38
2023-02-11T16:27:31.606Z,32.33
2023-02-11T16:29:58.904Z,35.28
2023-02-11T16:32:29.459Z,38.00
2023-02-11T16:34:58.048Z,34.75
2023-02-11T16:37:25.553Z,32.17
2023-02-11T16:39:58.592Z,34.17
2023-02-11T16:42:25.498Z,39.00
2023-02-11T16:44:52.016Z,36.65
2023-02-11T16:47:25.398Z,30.55
2023-02-11T16:49:52.813Z,34.28
2023-02-11T16:52:21.693Z,38.70
2023-02-11T16:54:48.447Z,38.63
2023-02-11T16:57:23.251Z,34.28
2023-02-11T16:59:51.084Z,34.25
2023-02-11T17:02:25.153Z,27.55
2023-02-11T17:04:56.184Z,34.47
2023-02-11T17:07:22.862Z,37.67
2023-02-11T17:09:49.341Z,37.00
2023-02-11T17:12:15.884Z,39.33
2023-02-11T17:14:42.325Z,32.63
2023-02-11T17:17:09.816Z,38.08
2023-02-11T17:19:36.537Z,40.17
2023-02-11T17:22:03.601Z,39.45
2023-02-11T17:24:31.604Z,39.23
2023-02-11T17:26:58.501Z,36.55
2023-02-11T17:29:26.143Z,38.42
2023-02-11T17:31:53.355Z,32.75
2023-02-11T17:34:21.609Z,38.55
2023-02-11T17:36:48.301Z,25.67
2023-02-11T17:39:14.824Z,36.03
2023-02-11T17:41:42.108Z,35.72
2023-02-11T17:44:10.443Z,44.88
2023-02-11T17:46:36.931Z,43.90
2023-02-11T17:49:03.913Z,37.30
2023-02-11T17:51:38.686Z,35.83
2023-02-11T17:54:12.204Z,37.13
2023-02-11T17:56:39.287Z,37.47
2023-02-11T17:59:08.414Z,40.43
2023-02-11T18:01:36.250Z,37.70
2023-02-11T18:04:03.000Z,38.60
2023-02-11T18:06:29.579Z,39.17
2023-02-11T18:08:59.614Z,36.83
2023-02-11T18:11:27.908Z,41.83
2023-02-11T18:13:54.846Z,40.55
2023-02-11T18:16:23.002Z,38.25
2023-02-11T18:18:50.386Z,57.10
2023-02-11T18:21:19.605Z,35.65
2023-02-11T18:23:47.062Z,33.83
2023-02-11T18:26:14.989Z,41.25
2023-02-11T18:31:12.958Z,44.00
2023-02-11T18:33:40.689Z,36.05
2023-02-11T18:36:13.310Z,41.28
2023-02-11T18:38:40.639Z,41.13
2023-02-11T18:41:07.540Z,41.45
2023-02-11T18:43:34.803Z,34.53
2023-02-11T18:46:06.296Z,26.95
2023-02-11T18:48:33.010Z,40.58
2023-02-11T18:50:59.498Z,34.85
2023-02-11T18:53:26.061Z,31.10
2023-02-11T18:58:40.834Z,42.65
2023-02-11T19:01:14.968Z,36.28
2023-02-11T19:03:42.060Z,39.50
2023-02-11T19:06:14.463Z,33.33
2023-02-11T19:08:40.928Z,38.40
2023-02-11T19:11:07.532Z,39.38
2023-02-11T19:13:34.038Z,36.70
2023-02-11T19:16:00.546Z,37.05
2023-02-11T19:18:27.186Z,39.75
2023-02-11T19:20:54.596Z,35.67
2023-02-11T19:23:21.387Z,41.80
2023-02-11T19:25:48.843Z,41.63
2023-02-11T19:28:15.930Z,41.40
2023-02-11T19:30:42.923Z,43.93
2023-02-11T19:33:10.305Z,43.73
2023-02-11T19:35:36.997Z,43.53
2023-02-11T19:38:06.367Z,42.97
2023-02-11T19:40:33.171Z,43.85
2023-02-11T19:43:00.833Z,41.53
2023-02-11T19:45:27.414Z,42.78
2023-02-11T19:47:57.481Z,43.75
2023-02-11T19:50:24.349Z,43.85
2023-02-11T19:52:50.966Z,41.20
2023-02-11T19:55:17.645Z,43.92
2023-02-11T19:57:44.173Z,43.50
2023-02-11T20:00:11.318Z,43.30
2023-02-11T20:02:39.443Z,44.00
2023-02-11T20:05:06.507Z,41.72
2023-02-11T20:07:33.012Z,48.10
2023-02-11T20:09:59.981Z,60.35
2023-02-11T20:12:26.779Z,47.70
2023-02-11T20:14:53.230Z,48.20
2023-02-11T20:17:19.724Z,48.00
2023-02-11T20:19:46.182Z,46.45
2023-02-11T20:22:12.618Z,46.60
2023-02-11T20:24:39.208Z,45.20
2023-02-11T20:27:08.406Z,42.25
2023-02-11T20:29:34.978Z,43.33
2023-02-11T20:32:02.949Z,41.28
2023-02-11T20:36:56.519Z,44.53
2023-02-11T20:39:24.613Z,44.40
2023-02-11T20:41:52.411Z,46.25
2023-02-11T20:44:21.677Z,46.50
2023-02-11T20:46:48.465Z,46.38
2023-02-11T20:49:18.805Z,40.47
2023-02-11T20:51:46.215Z,45.22
2023-02-11T20:54:18.057Z,44.42
2023-02-11T20:56:48.093Z,46.67
2023-02-11T20:59:16.981Z,45.60
2023-02-11T21:01:48.895Z,46.08
2023-02-11T21:04:18.158Z,44.38
2023-02-11T21:06:48.607Z,46.42
2023-02-11T21:09:24.694Z,46.30
2023-02-11T21:11:52.666Z,44.33
2023-02-11T21:16:48.294Z,44.53
2023-02-11T21:19:15.746Z,43.28
2023-02-11T21:21:42.728Z,45.72
2023-02-11T21:24:10.341Z,47.40
2023-02-11T21:26:37.318Z,44.80
2023-02-11T21:31:47.270Z,45.17
2023-02-11T21:34:15.925Z,46.13
2023-02-11T21:36:42.878Z,47.75
2023-02-11T21:39:10.020Z,45.60
2023-02-11T21:41:36.579Z,46.23
2023-02-11T21:44:03.244Z,45.58
2023-02-11T21:46:30.821Z,45.45
2023-02-11T21:48:57.838Z,44.88
2023-02-11T21:51:25.686Z,46.33
2023-02-11T21:53:57.529Z,44.92
2023-02-11T21:56:28.128Z,46.97
2023-02-11T21:58:56.366Z,45.92
2023-02-11T22:01:25.765Z,45.28
2023-02-11T22:03:52.829Z,47.38
2023-02-11T22:06:22.512Z,46.57
2023-02-11T22:08:52.905Z,47.72
2023-02-11T22:11:20.177Z,45.95
2023-02-11T22:13:47.365Z,44.17
2023-02-11T22:16:16.377Z,45.38
2023-02-11T22:18:45.879Z,45.40
2023-02-11T22:21:18.654Z,45.80
2023-02-11T22:23:45.830Z,46.55
2023-02-11T22:26:15.394Z,47.40
2023-02-11T22:28:42.656Z,45.75
2023-02-11T22:31:18.233Z,45.88
2023-02-11T22:33:45.197Z,46.67
2023-02-11T22:36:21.363Z,43.97
2023-02-11T22:38:48.435Z,46.60
2023-02-11T22:41:15.855Z,47.67
2023-02-11T22:43:43.146Z,44.03
2023-02-11T22:46:12.498Z,45.67
2023-02-11T22:48:39.074Z,47.90
2023-02-11T22:51:12.275Z,46.80
2023-02-11T22:53:39.190Z,46.78
2023-02-11T22:56:08.277Z,45.97
2023-02-11T22:58:36.272Z,44.70
2023-02-11T23:03:31.280Z,46.00
2023-02-11T23:08:27.015Z,45.08
2023-02-11T23:10:53.631Z,45.78
2023-02-11T23:13:20.302Z,45.05
2023-02-11T23:15:47.453Z,45.45
2023-02-11T23:18:14.077Z,45.70
2023-02-11T23:20:43.224Z,46.47
2023-02-11T23:23:09.898Z,46.10
2023-02-11T23:25:44.765Z,46.42
2023-02-11T23:28:11.919Z,45.85
2023-02-11T23:30:38.656Z,44.03
2023-02-11T23:33:05.412Z,46.10
2023-02-11T23:35:32.261Z,47.05
2023-02-11T23:37:58.724Z,46.80
2023-02-11T23:40:25.163Z,45.50
2023-02-11T23:42:51.966Z,46.25
2023-02-11T23:45:18.741Z,45.20
2023-02-11T23:47:45.264Z,43.22
2023-02-11T23:50:11.902Z,45.20
2023-02-11T23:52:38.630Z,45.60
2023-02-11T23:55:05.826Z,45.38
2023-02-11T23:57:34.807Z,44.53
